Time;durP1;ratioP1;P1;durP2;ratioP2;P2;SDS_P1;SDS_P2;PMS_P1;PMS_P2;Temp;Humidity;BMP_temperature;BMP_pressure;BME280_temperature;BME280_humidity;BME280_pressure;Samples;Min_cycle;Max_cycle;Signal;HPM_P1;HPM_P2
2021/03/24 00:00:46;;;;;;;54.88;23.75;;;;;;;5.67;93.69;101873.16;4982646;28;20030;-77
2021/03/24 00:03:13;;;;;;;54.22;23.70;;;;;;;5.65;93.88;101877.63;4981681;28;20134;-77
2021/03/24 00:05:44;;;;;;;46.15;23.10;;;;;;;5.64;93.88;101875.88;4966361;28;20349;-76
2021/03/24 00:08:09;;;;;;;53.38;23.90;;;;;;;5.62;93.87;101875.03;4971332;28;20410;-77
2021/03/24 00:10:36;;;;;;;50.33;22.33;;;;;;;5.59;93.87;101873.34;4968936;28;20035;-76
2021/03/24 00:13:03;;;;;;;51.22;22.80;;;;;;;5.56;93.84;101883.19;4956921;28;20133;-76
2021/03/24 00:15:28;;;;;;;52.13;24.55;;;;;;;5.53;93.95;101878.81;4971950;28;20038;-76
2021/03/24 00:17:55;;;;;;;59.22;24.77;;;;;;;5.50;93.82;101878.88;4981771;28;20034;-77
2021/03/24 00:20:25;;;;;;;53.35;22.23;;;;;;;5.43;93.80;101871.09;4965685;28;20042;-77
2021/03/24 00:22:51;;;;;;;56.85;23.38;;;;;;;5.38;94.10;101881.84;4982057;28;20554;-76
2021/03/24 00:25:17;;;;;;;44.92;21.83;;;;;;;5.33;94.32;101875.75;4971521;28;20038;-77
2021/03/24 00:27:44;;;;;;;57.13;22.90;;;;;;;5.30;94.47;101875.84;4983973;28;20049;-76
2021/03/24 00:30:10;;;;;;;49.63;22.33;;;;;;;5.25;94.60;101867.97;4983304;28;20096;-76
2021/03/24 00:32:36;;;;;;;44.92;22.58;;;;;;;5.19;94.67;101864.56;4969753;28;20506;-76
2021/03/24 00:35:03;;;;;;;48.08;21.60;;;;;;;5.13;94.95;101862.94;4967352;28;20117;-76
2021/03/24 00:37:29;;;;;;;47.00;21.52;;;;;;;5.13;95.12;101862.06;4984709;28;20502;-77
2021/03/24 00:39:54;;;;;;;50.13;22.42;;;;;;;5.12;95.13;101873.63;4964991;28;20049;-77
2021/03/24 00:42:19;;;;;;;40.88;21.67;;;;;;;5.08;95.16;101870.16;4967020;28;20089;-77
2021/03/24 00:44:45;;;;;;;57.17;23.60;;;;;;;5.05;95.42;101869.34;4967529;28;20066;-76
2021/03/24 00:47:10;;;;;;;55.03;24.15;;;;;;;5.04;95.30;101879.13;4951225;28;20406;-76
2021/03/24 00:49:35;;;;;;;52.05;23.02;;;;;;;5.03;95.61;101871.16;4984070;28;20510;-76
2021/03/24 00:52:01;;;;;;;61.78;24.00;;;;;;;5.09;95.60;101868.38;4966046;28;20041;-76
2021/03/24 00:54:27;;;;;;;51.35;23.58;;;;;;;5.00;95.33;101866.78;4983340;28;20031;-76
2021/03/24 00:56:52;;;;;;;47.28;21.40;;;;;;;4.95;95.91;101873.13;4967190;28;20378;-76
2021/03/24 00:59:18;;;;;;;50.22;24.20;;;;;;;4.89;96.10;101874.13;4967562;28;20096;-77
2021/03/24 01:01:43;;;;;;;45.30;21.98;;;;;;;4.82;96.06;101862.75;4984575;28;20046;-76
2021/03/24 01:04:09;;;;;;;49.67;22.02;;;;;;;4.78;96.16;101870.84;4983921;28;20041;-76
2021/03/24 01:06:41;;;;;;;56.95;23.50;;;;;;;4.77;96.46;101872.63;4983789;28;20038;-76
2021/03/24 01:09:09;;;;;;;48.25;22.35;;;;;;;4.73;96.39;101868.28;4983248;28;20038;-76
2021/03/24 01:11:36;;;;;;;54.63;22.33;;;;;;;4.72;96.76;101870.97;4969478;28;20026;-77
2021/03/24 01:14:03;;;;;;;50.30;22.77;;;;;;;4.72;96.47;101874.53;4983280;28;20076;-76
2021/03/24 01:16:28;;;;;;;44.13;21.77;;;;;;;4.66;96.63;101868.47;4985670;28;20034;-76
2021/03/24 01:18:53;;;;;;;51.53;22.40;;;;;;;4.60;96.60;101866.81;4967411;28;20042;-76
2021/03/24 01:21:19;;;;;;;55.28;23.65;;;;;;;4.59;96.63;101867.72;4988322;28;20121;-77
2021/03/24 01:23:44;;;;;;;68.32;24.45;;;;;;;4.56;96.76;101859.81;4970612;28;20054;-77
2021/03/24 01:26:10;;;;;;;54.05;24.27;;;;;;;4.57;96.76;101864.19;4986784;28;20486;-76
2021/03/24 01:28:35;;;;;;;53.65;25.15;;;;;;;4.57;96.70;101866.84;4971038;28;20040;-77
2021/03/24 01:31:01;;;;;;;60.75;25.60;;;;;;;4.57;96.69;101861.53;4971701;28;20038;-76
2021/03/24 01:33:27;;;;;;;61.00;25.83;;;;;;;4.56;96.71;101861.59;4993482;28;20137;-76
2021/03/24 01:35:55;;;;;;;57.13;24.92;;;;;;;4.52;96.75;101852.78;4985491;28;20122;-77
2021/03/24 01:38:21;;;;;;;53.90;24.52;;;;;;;4.48;97.04;101853.78;4970173;28;20132;-76
2021/03/24 01:40:53;;;;;;;60.67;26.05;;;;;;;4.43;97.18;101853.88;4974558;28;20058;-76
2021/03/24 01:43:41;;;;;;;56.38;24.85;;;;;;;4.40;97.28;101858.38;4969197;28;20390;-76
2021/03/24 01:46:19;;;;;;;57.03;25.30;;;;;;;4.34;97.34;101854.06;4971372;28;20049;-77
2021/03/24 01:48:55;;;;;;;57.17;25.42;;;;;;;4.31;97.61;101853.25;4951319;28;20039;-77
2021/03/24 01:51:25;;;;;;;68.28;26.90;;;;;;;4.27;97.84;101847.09;4986084;28;20102;-77
2021/03/24 01:53:51;;;;;;;62.65;25.05;;;;;;;4.26;98.03;101855.13;4978026;28;20038;-76
2021/03/24 01:56:18;;;;;;;49.97;25.75;;;;;;;4.24;98.19;101851.63;4987535;28;20034;-76
2021/03/24 01:58:43;;;;;;;57.60;25.60;;;;;;;4.21;98.29;101851.66;4986016;28;20030;-76
2021/03/24 02:01:15;;;;;;;58.38;26.95;;;;;;;4.18;98.37;101843.78;4956840;28;20031;-76
2021/03/24 02:03:41;;;;;;;65.25;27.63;;;;;;;4.15;98.54;101843.81;4955712;28;20254;-76
2021/03/24 02:06:16;;;;;;;63.67;27.10;;;;;;;4.12;98.73;101843.91;4979368;28;20038;-77
2021/03/24 02:08:49;;;;;;;67.57;27.15;;;;;;;4.08;98.67;101846.59;4983968;28;20585;-77
2021/03/24 02:11:22;;;;;;;63.15;26.77;;;;;;;4.07;98.41;101854.63;4974264;28;20102;-77
2021/03/24 02:13:53;;;;;;;65.85;25.85;;;;;;;3.96;98.61;101849.50;4970390;28;20070;-76
2021/03/24 02:16:30;;;;;;;54.20;25.42;;;;;;;3.87;98.95;101852.34;4974913;28;20254;-77
2021/03/24 02:18:59;;;;;;;65.45;26.83;;;;;;;3.85;99.24;101853.25;4981791;28;20106;-77
2021/03/24 02:21:28;;;;;;;71.30;29.15;;;;;;;3.83;99.44;101844.44;4952425;28;20499;-77
2021/03/24 02:23:57;;;;;;;66.72;29.13;;;;;;;3.79;99.79;101842.75;4970729;28;20041;-76
2021/03/24 02:27:28;;;;;;;59.72;26.55;;;;;;;3.78;100.00;101841.88;4953574;28;20063;-76
2021/03/24 02:30:20;;;;;;;57.05;26.85;;;;;;;3.76;100.00;101838.41;4888204;29;20639;-77
2021/03/24 02:32:51;;;;;;;60.78;26.63;;;;;;;3.71;100.00;101840.22;4895711;29;20623;-76
2021/03/24 02:35:21;;;;;;;66.50;28.23;;;;;;;3.70;100.00;101843.81;4954613;28;20050;-77
2021/03/24 02:37:47;;;;;;;68.35;28.02;;;;;;;3.69;100.00;101842.06;4969459;28;20019;-76
2021/03/24 02:40:17;;;;;;;57.40;25.77;;;;;;;3.69;100.00;101838.53;4951071;28;20039;-76
2021/03/24 02:42:45;;;;;;;60.92;26.20;;;;;;;3.69;100.00;101836.75;4985533;28;20052;-76
2021/03/24 02:45:14;;;;;;;62.05;26.08;;;;;;;3.70;100.00;101838.50;4952558;28;20525;-77
2021/03/24 02:47:42;;;;;;;57.95;27.33;;;;;;;3.68;99.75;101840.31;4985780;28;20062;-76
2021/03/24 02:50:09;;;;;;;73.40;29.42;;;;;;;3.64;99.72;101833.31;4967330;28;20104;-77
2021/03/24 02:52:35;;;;;;;63.40;29.67;;;;;;;3.61;99.86;101833.34;4968033;28;20088;-76
2021/03/24 02:55:03;;;;;;;73.65;30.40;;;;;;;3.64;100.00;101828.84;4974852;28;20109;-75
2021/03/24 02:57:28;;;;;;;71.28;31.60;;;;;;;3.62;100.00;101835.09;4970018;28;20030;-76
2021/03/24 02:59:53;;;;;;;64.55;29.63;;;;;;;3.60;100.00;101834.25;4968803;28;20464;-76
2021/03/24 03:02:23;;;;;;;81.43;28.33;;;;;;;3.60;100.00;101832.47;4952169;28;20034;-76
2021/03/24 03:04:59;;;;;;;69.50;28.63;;;;;;;3.57;100.00;101824.56;4968052;28;20038;-75
2021/03/24 03:07:31;;;;;;;65.47;28.27;;;;;;;3.54;100.00;101832.56;4968666;28;20391;-76
2021/03/24 03:10:03;;;;;;;63.95;27.90;;;;;;;3.49;100.00;101833.56;4970169;28;20030;-76
2021/03/24 03:12:36;;;;;;;63.75;26.80;;;;;;;3.43;100.00;101833.66;4960402;28;20030;-76
2021/03/24 03:15:08;;;;;;;61.80;27.08;;;;;;;3.38;100.00;101830.22;4968135;28;20042;-75
2021/03/24 03:17:40;;;;;;;63.25;28.02;;;;;;;3.34;100.00;101839.13;4977278;28;20361;-76
2021/03/24 03:20:18;;;;;;;65.82;29.05;;;;;;;3.29;100.00;101840.97;4982873;28;20049;-76
2021/03/24 03:23:01;;;;;;;68.45;28.98;;;;;;;3.23;100.00;101840.19;4969006;28;20034;-76
2021/03/24 03:25:31;;;;;;;63.72;29.92;;;;;;;3.20;100.00;101837.59;4966641;28;20034;-76
2021/03/24 03:27:59;;;;;;;76.07;30.42;;;;;;;3.20;100.00;101837.59;4984521;28;20306;-77
2021/03/24 03:30:32;;;;;;;78.53;31.00;;;;;;;3.19;100.00;101830.53;4985372;28;20034;-77
2021/03/24 03:33:01;;;;;;;70.22;30.92;;;;;;;3.17;100.00;101836.75;4965058;28;20034;-77
2021/03/24 03:35:29;;;;;;;63.55;30.08;;;;;;;3.10;100.00;101835.97;4965333;28;20092;-75
2021/03/24 03:37:57;;;;;;;70.32;30.98;;;;;;;3.08;100.00;101835.13;4961012;28;20054;-77
2021/03/24 03:40:25;;;;;;;68.25;30.27;;;;;;;3.09;100.00;101828.03;4975601;28;20550;-77
2021/03/24 03:42:52;;;;;;;76.85;33.05;;;;;;;3.09;100.00;101842.16;4984476;28;20088;-76
2021/03/24 03:45:20;;;;;;;80.50;35.03;;;;;;;3.11;100.00;101844.81;4967931;28;20151;-76
2021/03/24 03:47:46;;;;;;;71.20;31.98;;;;;;;3.11;100.00;101836.84;4966631;28;20072;-77
2021/03/24 03:50:18;;;;;;;81.45;35.38;;;;;;;3.14;100.00;101832.38;4966198;28;20053;-77
2021/03/24 03:52:43;;;;;;;90.22;35.70;;;;;;;3.28;100.00;101836.56;4967392;28;20105;-76
2021/03/24 03:55:27;;;;;;;84.82;35.30;;;;;;;3.30;100.00;101829.47;4954348;28;20134;-76
2021/03/24 03:57:55;;;;;;;88.35;35.22;;;;;;;3.27;100.00;101827.75;4967578;28;20076;-76
2021/03/24 04:00:25;;;;;;;79.95;35.70;;;;;;;3.10;100.00;101825.34;4984690;28;20038;-76
2021/03/24 04:03:03;;;;;;;85.80;35.65;;;;;;;3.00;100.00;101828.19;4959124;28;20078;-75
2021/03/24 04:05:35;;;;;;;90.22;37.00;;;;;;;3.03;100.00;101823.69;4957706;28;20410;-75
2021/03/24 04:08:10;;;;;;;96.63;37.38;;;;;;;2.97;100.00;101837.06;4968346;28;20089;-75
2021/03/24 04:10:39;;;;;;;79.60;35.83;;;;;;;2.98;100.00;101835.28;4984623;28;20027;-77
2021/03/24 04:13:05;;;;;;;81.25;37.05;;;;;;;2.97;100.00;101837.06;4964977;28;20049;-75
2021/03/24 04:15:31;;;;;;;74.50;35.05;;;;;;;2.96;100.00;101832.69;4964979;28;20466;-76
2021/03/24 04:18:03;;;;;;;83.15;36.47;;;;;;;2.96;100.00;101837.97;4968464;28;20042;-76
2021/03/24 04:20:31;;;;;;;85.82;36.65;;;;;;;2.95;100.00;101830.91;4966326;28;20053;-75
2021/03/24 04:23:00;;;;;;;81.30;36.15;;;;;;;2.92;100.00;101836.25;4954142;28;20038;-77
2021/03/24 04:25:57;;;;;;;83.78;36.22;;;;;;;2.90;100.00;101839.84;4982409;28;20049;-75
2021/03/24 04:28:26;;;;;;;90.90;37.50;;;;;;;2.86;100.00;101831.03;4967141;28;20466;-77
2021/03/24 04:30:59;;;;;;;83.65;34.00;;;;;;;2.86;100.00;101839.00;4983122;28;20578;-76
2021/03/24 04:33:24;;;;;;;79.28;34.03;;;;;;;2.80;100.00;101836.44;4965578;28;20101;-75
2021/03/24 04:35:51;;;;;;;84.32;34.08;;;;;;;2.78;100.00;101827.63;4983814;28;20038;-77
2021/03/24 04:38:41;;;;;;;88.47;34.40;;;;;;;2.76;100.00;101835.63;4970972;28;20418;-76
2021/03/24 04:41:14;;;;;;;87.25;34.17;;;;;;;2.76;100.00;101829.44;4967604;28;20038;-76
2021/03/24 04:43:43;;;;;;;90.38;35.60;;;;;;;2.73;100.00;101829.47;4981587;28;20824;-77
2021/03/24 04:46:32;;;;;;;84.15;34.97;;;;;;;2.85;100.00;101831.94;4950318;28;20121;-76
2021/03/24 04:49:17;;;;;;;81.68;33.90;;;;;;;2.81;100.00;101825.81;4980945;28;20057;-76
2021/03/24 04:51:44;;;;;;;85.07;33.47;;;;;;;2.69;100.00;101828.66;4964422;28;20053;-77
2021/03/24 04:54:18;;;;;;;86.38;34.15;;;;;;;2.65;100.00;101831.38;4987883;28;20040;-76
2021/03/24 04:56:52;;;;;;;80.38;32.92;;;;;;;2.62;100.00;101842.00;4986941;28;20054;-76
2021/03/24 04:59:26;;;;;;;81.35;35.17;;;;;;;2.64;100.00;101841.09;4970625;28;20030;-76
2021/03/24 05:01:56;;;;;;;84.15;34.75;;;;;;;2.63;100.00;101839.34;4958340;28;20128;-77
2021/03/24 05:04:38;;;;;;;83.13;33.22;;;;;;;2.63;100.00;101847.28;4987068;28;20042;-76
2021/03/24 05:07:09;;;;;;;80.88;33.30;;;;;;;2.63;100.00;101843.75;4987570;28;20042;-76
2021/03/24 05:09:35;;;;;;;86.03;33.60;;;;;;;2.63;100.00;101854.34;4979132;28;20348;-75
2021/03/24 05:12:14;;;;;;;86.70;33.85;;;;;;;2.64;100.00;101856.13;4969253;28;20491;-76
2021/03/24 05:14:51;;;;;;;88.07;33.05;;;;;;;2.61;100.00;101857.03;4953107;28;20034;-76
2021/03/24 05:17:22;;;;;;;80.22;33.88;;;;;;;2.65;100.00;101855.22;4987977;28;20061;-75
2021/03/24 05:19:49;;;;;;;72.10;30.70;;;;;;;2.62;100.00;101857.91;4988539;28;20031;-76
2021/03/24 05:22:41;;;;;;;74.93;32.20;;;;;;;2.61;100.00;101850.84;4970431;28;20046;-75
2021/03/24 05:25:28;;;;;;;80.80;32.60;;;;;;;2.64;100.00;101850.81;4971085;28;20066;-75
2021/03/24 05:28:13;;;;;;;87.15;33.40;;;;;;;2.57;100.00;101850.03;4988221;28;20034;-76
2021/03/24 05:30:44;;;;;;;72.95;31.15;;;;;;;2.59;100.00;101847.38;4965452;28;20125;-76
2021/03/24 05:33:18;;;;;;;72.57;30.58;;;;;;;2.54;100.00;101849.16;4987642;28;20526;-75
2021/03/24 05:36:13;;;;;;;70.68;31.40;;;;;;;2.54;100.00;101850.03;4972278;28;20042;-77
2021/03/24 05:38:43;;;;;;;82.07;30.40;;;;;;;2.71;100.00;101853.38;4969824;28;20022;-75
2021/03/24 05:41:31;;;;;;;73.88;32.20;;;;;;;2.56;100.00;101852.69;4974078;28;20035;-75
2021/03/24 05:44:19;;;;;;;84.95;31.67;;;;;;;2.52;100.00;101846.56;4983222;28;20368;-76
2021/03/24 05:47:39;;;;;;;77.80;30.80;;;;;;;2.49;100.00;101851.88;4951838;28;20729;-76
2021/03/24 05:50:29;;;;;;;77.60;31.02;;;;;;;2.50;100.00;101852.78;4928101;29;20051;-75
2021/03/24 05:53:23;;;;;;;70.22;32.72;;;;;;;2.45;100.00;101850.19;4961956;28;20073;-74
2021/03/24 05:55:59;;;;;;;72.82;31.92;;;;;;;2.43;100.00;101842.25;4986596;28;20045;-76
2021/03/24 05:58:24;;;;;;;76.68;32.88;;;;;;;2.46;100.00;101853.72;4986087;28;20037;-76
2021/03/24 06:01:04;;;;;;;76.28;29.40;;;;;;;2.47;100.00;101848.38;4987045;28;20289;-75
2021/03/24 06:03:56;;;;;;;64.40;29.23;;;;;;;2.48;100.00;101847.47;4984798;28;20058;-74
2021/03/24 06:06:34;;;;;;;72.32;30.33;;;;;;;2.52;100.00;101854.50;4972081;28;20045;-75
2021/03/24 06:09:27;;;;;;;78.38;32.10;;;;;;;2.58;100.00;101851.78;4986277;28;20041;-75
2021/03/24 06:12:06;;;;;;;76.57;32.33;;;;;;;2.65;100.00;101848.16;4983487;28;20034;-76
2021/03/24 06:14:45;;;;;;;80.82;31.80;;;;;;;2.62;100.00;101848.19;4981375;28;20060;-75
2021/03/24 06:17:58;;;;;;;86.65;31.60;;;;;;;2.67;100.00;101850.75;4987613;28;20556;-74
2021/03/24 06:20:46;;;;;;;76.03;32.53;;;;;;;2.78;100.00;101859.44;4919455;28;20411;-74
2021/03/24 06:23:37;;;;;;;93.97;31.80;;;;;;;2.85;100.00;101856.69;4965588;28;20048;-74
2021/03/24 06:26:28;;;;;;;91.15;32.50;;;;;;;3.02;100.00;101859.09;4983966;28;20406;-76
2021/03/24 06:29:05;;;;;;;77.40;31.00;;;;;;;3.00;100.00;101860.00;4984038;28;20435;-76
2021/03/24 06:31:54;;;;;;;71.15;29.67;;;;;;;3.02;100.00;101848.50;4956852;28;20101;-74
2021/03/24 06:35:04;;;;;;;82.55;33.22;;;;;;;3.07;100.00;101862.56;4983296;28;20039;-75
2021/03/24 06:37:59;;;;;;;81.00;32.88;;;;;;;3.19;100.00;101861.50;4927231;28;20106;-76
2021/03/24 06:40:34;;;;;;;79.38;32.83;;;;;;;3.30;100.00;101859.53;4968858;28;20034;-75
2021/03/24 06:43:34;;;;;;;70.63;31.15;;;;;;;3.47;100.00;101856.59;4985592;28;20142;-74
2021/03/24 06:46:37;;;;;;;77.47;31.48;;;;;;;3.75;100.00;101849.03;4985801;28;20384;-75
2021/03/24 06:49:44;;;;;;;78.97;31.07;;;;;;;4.03;100.00;101848.47;4965943;28;20046;-76
2021/03/24 06:52:27;;;;;;;71.40;27.85;;;;;;;4.56;100.00;101857.16;4981673;28;20301;-75
2021/03/24 06:55:43;;;;;;;67.13;29.63;;;;;;;5.09;100.00;101857.72;4968682;28;20093;-75
2021/03/24 06:58:30;;;;;;;69.07;29.20;;;;;;;5.71;97.13;101848.16;4968899;28;20121;-76
2021/03/24 07:01:18;;;;;;;56.53;26.42;;;;;;;6.11;92.45;101861.31;4983886;28;20042;-76
2021/03/24 07:04:37;;;;;;;57.20;25.75;;;;;;;6.49;89.84;101858.44;4966508;28;20030;-75
2021/03/24 07:07:30;;;;;;;57.72;24.00;;;;;;;6.87;86.21;101865.28;4916696;29;20043;-76
2021/03/24 07:10:24;;;;;;;59.40;25.85;;;;;;;7.03;85.41;101870.19;4917845;29;20116;-75
2021/03/24 07:13:18;;;;;;;60.85;25.95;;;;;;;7.38;83.99;101871.69;4955143;28;20034;-74
2021/03/24 07:16:06;;;;;;;50.75;23.83;;;;;;;7.70;82.50;101868.84;4984736;28;20372;-75
2021/03/24 07:18:34;;;;;;;61.92;23.52;;;;;;;8.08;80.76;101868.34;4992745;28;20412;-75
2021/03/24 07:21:22;;;;;;;55.58;23.10;;;;;;;8.27;79.04;101870.41;4967896;28;20089;-76
2021/03/24 07:23:58;;;;;;;51.38;23.45;;;;;;;8.51;77.42;101865.03;4973217;28;20134;-75
2021/03/24 07:26:32;;;;;;;53.60;23.90;;;;;;;8.50;76.97;101865.97;4973793;28;20030;-76
2021/03/24 07:29:23;;;;;;;50.70;23.42;;;;;;;8.67;77.36;101877.81;4968321;28;20475;-76
2021/03/24 07:32:08;;;;;;;48.92;22.20;;;;;;;9.04;75.53;101874.59;4958856;28;20502;-76
2021/03/24 07:35:05;;;;;;;49.45;22.80;;;;;;;9.23;74.26;101870.25;4969197;28;20034;-76
2021/03/24 07:38:00;;;;;;;48.22;22.35;;;;;;;9.58;74.77;101866.13;4967964;28;20034;-75
2021/03/24 07:40:40;;;;;;;52.03;22.15;;;;;;;9.61;73.07;101872.25;4949676;28;20412;-75
2021/03/24 07:43:30;;;;;;;46.30;21.15;;;;;;;10.07;72.68;101870.25;4971623;28;20038;-76
2021/03/24 07:46:33;;;;;;;45.30;21.88;;;;;;;10.54;71.92;101878.91;4977377;28;20034;-76
2021/03/24 07:49:14;;;;;;;45.08;21.27;;;;;;;10.87;69.57;101880.00;4983952;28;20045;-75
2021/03/24 07:52:30;;;;;;;42.50;20.13;;;;;;;11.20;67.79;101882.03;4986983;28;20018;-76
2021/03/24 07:55:00;;;;;;;56.97;20.98;;;;;;;11.15;67.23;101879.59;4902796;29;20051;-76
2021/03/24 07:57:42;;;;;;;49.10;23.25;;;;;;;11.44;67.13;101879.97;4961121;28;20042;-76
2021/03/24 08:00:20;;;;;;;47.60;21.88;;;;;;;11.66;66.58;101875.28;4953782;28;20042;-77
2021/03/24 08:02:54;;;;;;;52.67;20.80;;;;;;;11.95;64.33;101872.00;4952963;28;20064;-77
2021/03/24 08:05:20;;;;;;;46.83;22.17;;;;;;;11.72;64.36;101864.22;4969984;28;20042;-77
2021/03/24 08:08:19;;;;;;;58.42;22.70;;;;;;;11.90;63.92;101865.13;4982937;28;20026;-77
2021/03/24 08:11:06;;;;;;;48.22;22.88;;;;;;;11.97;64.00;101867.38;4970705;28;20052;-76
2021/03/24 08:14:02;;;;;;;51.08;22.58;;;;;;;11.85;64.06;101868.00;4967097;28;20537;-76
2021/03/24 08:16:33;;;;;;;48.70;22.38;;;;;;;12.41;63.76;101869.56;4954846;28;20030;-76
2021/03/24 08:19:20;;;;;;;45.83;20.58;;;;;;;12.49;62.14;101873.59;4970901;28;20060;-77
2021/03/24 08:22:04;;;;;;;56.97;20.88;;;;;;;12.57;62.50;101870.50;4986470;28;20034;-77
2021/03/24 08:24:36;;;;;;;43.85;20.63;;;;;;;12.79;60.89;101875.56;4987253;28;20069;-75
2021/03/24 08:27:11;;;;;;;47.40;22.65;;;;;;;13.04;61.25;101875.06;4968721;28;20089;-76
2021/03/24 08:29:42;;;;;;;50.60;24.38;;;;;;;13.52;60.63;101866.00;4986582;28;20046;-76
2021/03/24 08:32:32;;;;;;;44.90;20.30;;;;;;;13.59;59.26;101862.88;4987849;28;20045;-76
2021/03/24 08:35:09;;;;;;;51.05;23.38;;;;;;;13.82;57.89;101868.75;4969920;28;20424;-75
2021/03/24 08:37:50;;;;;;;50.38;22.20;;;;;;;13.67;58.87;101863.31;4985935;28;20092;-75
2021/03/24 08:40:19;;;;;;;51.97;22.73;;;;;;;14.14;58.74;101857.75;4966293;28;20488;-75
2021/03/24 08:43:12;;;;;;;53.20;22.13;;;;;;;14.44;56.83;101857.69;4974321;28;20133;-75
2021/03/24 08:45:59;;;;;;;55.58;23.02;;;;;;;14.39;55.71;101858.97;4981008;28;20037;-75
2021/03/24 08:48:42;;;;;;;44.47;21.08;;;;;;;14.26;56.73;101855.28;4967309;28;20034;-75
2021/03/24 08:51:13;;;;;;;;;;;;;;;13.97;56.26;101863.28;4985690;28;20018;-75
2021/03/24 08:53:58;;;;;;;56.20;22.77;;;;;;;14.43;56.22;101858.69;4984163;28;19924;-75
2021/03/24 08:56:45;;;;;;;54.20;24.52;;;;;;;14.52;57.91;101850.00;4969197;28;20125;-75
2021/03/24 08:59:24;;;;;;;51.35;22.23;;;;;;;14.96;55.31;101849.00;4971697;28;20096;-75
2021/03/24 09:02:01;;;;;;;53.15;23.63;;;;;;;15.07;52.43;101857.28;4984603;28;20061;-75
2021/03/24 09:04:55;;;;;;;56.40;25.42;;;;;;;14.97;51.35;101851.63;4978421;28;20598;-75
2021/03/24 09:07:29;;;;;;;;;;;;;;;15.08;51.53;101848.22;4987088;28;20037;-75
2021/03/24 09:10:11;;;;;;;53.83;23.17;;;;;;;15.60;53.38;101845.66;4971843;28;19920;-75
2021/03/24 09:12:59;;;;;;;54.03;24.70;;;;;;;15.80;51.74;101841.56;4979907;28;20030;-75
2021/03/24 09:15:42;;;;;;;53.25;23.80;;;;;;;15.90;52.40;101844.53;4963524;28;20133;-75
2021/03/24 09:18:10;;;;;;;;;;;;;;;16.07;49.78;101852.38;4983475;28;20053;-75
2021/03/24 09:20:59;;;;;;;45.15;22.75;;;;;;;16.08;52.00;101845.97;4977652;28;20005;-75
2021/03/24 09:23:44;;;;;;;44.33;21.63;;;;;;;16.29;50.19;101846.34;4981850;28;20035;-75
2021/03/24 09:26:29;;;;;;;47.95;22.08;;;;;;;16.29;50.76;101847.19;4974291;28;20054;-75
2021/03/24 09:29:08;;;;;;;39.90;18.65;;;;;;;16.13;50.69;101846.50;4972140;28;20140;-75
2021/03/24 09:31:58;;;;;;;48.50;22.15;;;;;;;16.22;52.09;101847.72;4967758;28;20030;-75
2021/03/24 09:34:54;;;;;;;44.47;20.35;;;;;;;16.22;51.17;101847.72;4983091;28;20518;-75
2021/03/24 09:37:30;;;;;;;45.25;21.48;;;;;;;16.09;52.48;101843.16;4984673;28;20593;-75
2021/03/24 09:40:00;;;;;;;43.67;20.27;;;;;;;16.05;52.15;101838.03;4991211;28;20510;-75
2021/03/24 09:42:44;;;;;;;44.20;20.92;;;;;;;16.29;51.84;101839.06;4989332;28;20030;-75
2021/03/24 09:45:13;;;;;;;48.63;19.93;;;;;;;16.01;51.79;101834.69;4978963;28;20091;-75
2021/03/24 09:48:03;;;;;;;50.60;21.58;;;;;;;16.07;52.55;101838.81;4974838;28;20049;-75
2021/03/24 09:50:39;;;;;;;43.53;18.20;;;;;;;16.00;49.69;101826.66;4981080;28;20117;-75
2021/03/24 09:53:20;;;;;;;44.22;20.52;;;;;;;15.98;51.89;101826.81;4990456;28;20565;-75
2021/03/24 09:56:01;;;;;;;45.35;20.63;;;;;;;16.05;52.83;101819.97;5000359;28;20045;-75
2021/03/24 09:58:36;;;;;;;46.35;20.42;;;;;;;15.94;53.63;101817.13;4990738;28;20030;-75
2021/03/24 10:01:11;;;;;;;48.75;20.52;;;;;;;15.91;52.72;101817.38;4989506;28;20596;-75
2021/03/24 10:04:08;;;;;;;46.90;20.77;;;;;;;16.13;52.57;101817.59;4976474;28;20030;-75
2021/03/24 10:06:58;;;;;;;43.00;19.88;;;;;;;16.01;52.69;101813.03;4969749;28;20037;-75
2021/03/24 10:09:34;;;;;;;43.80;19.63;;;;;;;15.95;52.19;101812.59;4989686;28;20561;-75
2021/03/24 10:12:09;;;;;;;49.80;21.00;;;;;;;15.94;51.37;101809.00;4983772;28;20479;-75
2021/03/24 10:14:51;;;;;;;49.45;20.77;;;;;;;15.94;52.12;101811.72;4977516;28;20034;-76
2021/03/24 10:17:39;;;;;;;49.20;19.63;;;;;;;15.94;53.37;101810.84;4993958;28;20033;-75
2021/03/24 10:20:18;;;;;;;50.85;21.30;;;;;;;15.89;52.52;101804.88;4974226;28;20065;-75
2021/03/24 10:22:49;;;;;;;46.28;19.42;;;;;;;16.00;53.04;101800.47;4961708;28;20041;-75
2021/03/24 10:25:34;;;;;;;47.80;21.10;;;;;;;15.95;51.67;101790.91;4971009;28;20430;-75
2021/03/24 10:28:10;;;;;;;47.30;19.60;;;;;;;16.03;51.10;101800.25;4973452;28;20501;-74
2021/03/24 10:30:43;;;;;;;52.83;23.15;;;;;;;16.09;53.44;101797.13;4975633;28;20029;-75
2021/03/24 10:33:20;;;;;;;47.45;20.83;;;;;;;16.04;53.34;101791.16;4971317;28;20065;-75
2021/03/24 10:35:55;;;;;;;55.53;22.33;;;;;;;16.08;53.98;101792.66;4995944;28;20971;-75
2021/03/24 10:38:48;;;;;;;46.42;19.48;;;;;;;16.24;52.64;101791.56;4969769;28;20097;-75
2021/03/24 10:41:19;;;;;;;43.25;20.70;;;;;;;16.04;51.93;101788.47;4976983;28;20087;-75
2021/03/24 10:43:51;;;;;;;48.03;20.70;;;;;;;16.19;50.45;101798.19;4991098;28;20044;-75
2021/03/24 10:46:26;;;;;;;42.75;19.45;;;;;;;16.33;52.27;101799.06;4994156;28;20088;-75
2021/03/24 10:48:57;;;;;;;51.40;20.42;;;;;;;16.19;51.44;101795.50;4985796;28;20033;-75
2021/03/24 10:51:53;;;;;;;55.88;21.25;;;;;;;16.26;51.69;101789.63;4985532;28;20403;-75
2021/03/24 10:54:26;;;;;;;44.22;19.13;;;;;;;16.51;52.13;101782.34;4988635;28;20030;-75
2021/03/24 10:57:17;;;;;;;53.83;21.80;;;;;;;16.33;50.95;101786.38;4984997;28;20030;-75
2021/03/24 10:59:50;;;;;;;45.17;18.67;;;;;;;16.48;50.81;101789.81;4978772;28;20541;-76
2021/03/24 11:02:38;;;;;;;46.15;19.17;;;;;;;16.55;49.20;101785.69;4958586;28;20080;-75
2021/03/24 11:05:18;;;;;;;46.35;19.40;;;;;;;16.56;48.96;101780.16;4986475;28;20034;-75
2021/03/24 11:07:48;;;;;;;45.08;18.73;;;;;;;16.60;49.02;101786.28;4988964;28;20077;-75
2021/03/24 11:10:41;;;;;;;47.20;19.83;;;;;;;16.52;48.39;101785.94;4968616;28;20089;-75
2021/03/24 11:13:39;;;;;;;51.30;20.00;;;;;;;16.57;47.52;101776.47;4976319;28;20069;-75
2021/03/24 11:16:15;;;;;;;39.33;18.80;;;;;;;16.63;47.80;101782.47;4967413;28;20077;-75
2021/03/24 11:18:42;;;;;;;45.75;19.05;;;;;;;16.54;48.61;101779.41;4991114;28;20471;-75
2021/03/24 11:21:28;;;;;;;47.40;20.80;;;;;;;16.66;50.48;101772.28;4983859;28;20117;-75
2021/03/24 11:24:06;;;;;;;47.08;19.55;;;;;;;16.73;49.29;101770.81;4967412;28;20451;-75
2021/03/24 11:26:50;;;;;;;51.17;21.27;;;;;;;16.79;49.15;101778.50;4981343;28;20027;-75
2021/03/24 11:29:21;;;;;;;46.38;20.08;;;;;;;16.73;46.38;101772.66;4966682;28;20058;-75
2021/03/24 11:32:17;;;;;;;48.92;19.83;;;;;;;16.75;47.64;101766.16;4981665;28;20048;-76
2021/03/24 11:35:01;;;;;;;46.92;20.83;;;;;;;16.71;47.81;101774.66;4966269;28;20423;-75
2021/03/24 11:37:54;;;;;;;42.80;21.25;;;;;;;16.74;47.19;101775.28;4983930;28;20030;-75
2021/03/24 11:40:44;;;;;;;46.92;21.67;;;;;;;16.80;47.30;101763.97;4987649;28;20038;-75
2021/03/24 11:43:20;;;;;;;49.03;21.20;;;;;;;16.83;49.37;101762.91;4987865;28;20069;-75
2021/03/24 11:45:46;;;;;;;52.33;21.35;;;;;;;16.97;49.11;101755.44;4978035;28;20393;-75
2021/03/24 11:48:20;;;;;;;46.85;21.02;;;;;;;17.01;47.20;101758.81;4994614;28;20017;-75
2021/03/24 11:51:10;;;;;;;53.92;21.80;;;;;;;17.10;47.17;101759.94;4960717;28;20058;-75
2021/03/24 11:54:13;;;;;;;44.05;19.25;;;;;;;17.19;46.91;101759.28;4984424;28;20119;-76
2021/03/24 11:56:45;;;;;;;48.33;21.60;;;;;;;17.00;46.47;101751.66;4991862;28;20105;-75
2021/03/24 11:59:30;;;;;;;52.25;22.58;;;;;;;17.10;45.97;101757.25;4992560;28;20034;-75